Time;durP1;ratioP1;P1;durP2;ratioP2;P2;SDS_P1;SDS_P2;PMS_P1;PMS_P2;Temp;Humidity;BMP_temperature;BMP_pressure;BME280_temperature;BME280_humidity;BME280_pressure;Samples;Min_cycle;Max_cycle;Signal;HPM_P1;HPM_P2
2023/07/04 00:00:58;;;;;;;0.20;0.10;;;;;;;;;;5026454;28;20326;-81
2023/07/04 00:03:24;;;;;;;0.20;0.00;;;;;;;;;;5025449;28;20360;-80
2023/07/04 00:05:53;;;;;;;0.20;0.00;;;;;;;;;;5028910;28;20049;-80
2023/07/04 00:08:21;;;;;;;0.20;0.10;;;;;;;;;;5026476;28;20045;-81
2023/07/04 00:10:47;;;;;;;0.20;0.10;;;;;;;;;;5031798;28;20559;-80
2023/07/04 00:13:13;;;;;;;0.20;0.10;;;;;;;;;;5040283;28;20049;-82
2023/07/04 00:15:46;;;;;;;0.20;0.10;;;;;;;;;;5034972;28;20033;-81
2023/07/04 00:18:12;;;;;;;0.20;0.10;;;;;;;;;;5029217;28;20044;-82
2023/07/04 00:20:38;;;;;;;0.20;0.10;;;;;;;;;;5032393;28;20429;-81
2023/07/04 00:23:04;;;;;;;0.20;0.10;;;;;;;;;;5017329;28;20037;-81
2023/07/04 00:25:31;;;;;;;0.20;0.10;;;;;;;;;;5034675;28;20415;-82
2023/07/04 00:27:57;;;;;;;0.20;0.10;;;;;;;;;;5036899;28;20045;-81
2023/07/04 00:30:25;;;;;;;0.20;0.10;;;;;;;;;;5035687;28;20086;-81
2023/07/04 00:32:51;;;;;;;0.20;0.10;;;;;;;;;;5037557;28;20040;-82
2023/07/04 00:35:17;;;;;;;0.20;0.10;;;;;;;;;;5036513;28;20041;-81
2023/07/04 00:37:43;;;;;;;0.20;0.10;;;;;;;;;;5028471;28;20041;-80
2023/07/04 00:40:12;;;;;;;0.22;0.17;;;;;;;;;;5013508;28;20096;-82
2023/07/04 00:42:38;;;;;;;0.20;0.10;;;;;;;;;;5032192;28;20037;-82
2023/07/04 00:45:19;;;;;;;0.20;0.10;;;;;;;;;;5026830;28;20036;-81
2023/07/04 00:47:53;;;;;;;0.20;0.13;;;;;;;;;;5032842;28;20096;-81
2023/07/04 00:50:19;;;;;;;0.20;0.10;;;;;;;;;;5009059;28;20048;-82
2023/07/04 00:52:45;;;;;;;0.30;0.17;;;;;;;;;;5031403;28;20041;-81
2023/07/04 00:55:12;;;;;;;0.20;0.10;;;;;;;;;;5025175;28;20119;-82
2023/07/04 00:57:38;;;;;;;0.20;0.10;;;;;;;;;;5030374;28;20037;-80
2023/07/04 01:00:15;;;;;;;0.20;0.10;;;;;;;;;;5028080;28;20116;-80
2023/07/04 01:02:45;;;;;;;0.20;0.10;;;;;;;;;;5015678;28;20057;-82
2023/07/04 01:05:11;;;;;;;0.43;0.40;;;;;;;;;;5034789;28;20102;-81
2023/07/04 01:07:45;;;;;;;0.20;0.10;;;;;;;;;;5030503;28;20037;-81
2023/07/04 01:10:17;;;;;;;0.20;0.10;;;;;;;;;;5029936;28;20044;-81
2023/07/04 01:12:44;;;;;;;0.20;0.10;;;;;;;;;;5034531;28;20045;-81
2023/07/04 01:15:10;;;;;;;0.32;0.20;;;;;;;;;;5012982;28;20037;-79
2023/07/04 01:17:38;;;;;;;0.20;0.10;;;;;;;;;;5036677;28;20632;-79
2023/07/04 01:20:06;;;;;;;0.20;0.13;;;;;;;;;;5020535;28;20037;-80
2023/07/04 01:22:39;;;;;;;0.20;0.10;;;;;;;;;;5036401;28;20048;-79
2023/07/04 01:25:05;;;;;;;0.20;0.10;;;;;;;;;;5041089;28;20083;-80
2023/07/04 01:27:31;;;;;;;0.20;0.10;;;;;;;;;;5040457;28;20037;-79
2023/07/04 01:30:10;;;;;;;0.20;0.03;;;;;;;;;;5085141;22;20051;-81
2023/07/04 01:32:39;;;;;;;0.65;0.30;;;;;;;;;;5064574;28;20103;-79
2023/07/04 01:35:07;;;;;;;0.20;0.05;;;;;;;;;;5049138;28;20624;-82
2023/07/04 01:37:33;;;;;;;1.45;1.17;;;;;;;;;;5068543;28;20091;-81
2023/07/04 01:40:00;;;;;;;0.20;0.10;;;;;;;;;;5040242;28;20059;-79
2023/07/04 01:42:31;;;;;;;0.20;0.10;;;;;;;;;;5027181;28;20040;-79
2023/07/04 01:45:07;;;;;;;0.20;0.10;;;;;;;;;;5041633;28;20045;-80
2023/07/04 01:47:33;;;;;;;0.30;0.30;;;;;;;;;;5044766;28;20040;-80
2023/07/04 01:50:00;;;;;;;0.20;0.10;;;;;;;;;;5029849;28;20071;-80
2023/07/04 01:52:26;;;;;;;0.20;0.10;;;;;;;;;;5030927;28;20044;-82
2023/07/04 01:54:52;;;;;;;0.20;0.10;;;;;;;;;;5045262;28;21563;-79
2023/07/04 01:57:18;;;;;;;0.20;0.10;;;;;;;;;;5038238;28;20044;-82
2023/07/04 01:59:45;;;;;;;0.20;0.10;;;;;;;;;;5028747;28;20489;-81
2023/07/04 02:02:11;;;;;;;0.20;0.10;;;;;;;;;;5043778;28;20504;-80
2023/07/04 02:04:37;;;;;;;2.17;1.50;;;;;;;;;;5028873;28;20463;-83
2023/07/04 02:07:03;;;;;;;0.20;0.05;;;;;;;;;;5026609;28;20074;-80
2023/07/04 02:09:29;;;;;;;0.20;0.10;;;;;;;;;;5038693;28;20040;-82
2023/07/04 02:11:55;;;;;;;0.20;0.10;;;;;;;;;;5045466;28;20118;-82
2023/07/04 02:14:21;;;;;;;0.20;0.20;;;;;;;;;;5044501;28;20508;-82
2023/07/04 02:16:49;;;;;;;0.20;0.10;;;;;;;;;;5045052;28;20501;-83
2023/07/04 02:19:15;;;;;;;3.40;1.45;;;;;;;;;;5027193;28;21783;-82
2023/07/04 02:21:41;;;;;;;0.20;0.10;;;;;;;;;;5038355;28;20109;-82
2023/07/04 02:24:07;;;;;;;0.20;0.00;;;;;;;;;;5051147;28;20037;-83
2023/07/04 02:26:33;;;;;;;0.20;0.10;;;;;;;;;;5027219;28;20044;-82
2023/07/04 02:29:00;;;;;;;0.20;0.10;;;;;;;;;;5046629;28;20048;-80
2023/07/04 02:31:26;;;;;;;0.20;0.10;;;;;;;;;;5026109;28;20048;-83
2023/07/04 02:33:52;;;;;;;0.20;0.10;;;;;;;;;;5022978;28;20485;-82
2023/07/04 02:36:18;;;;;;;0.35;0.32;;;;;;;;;;5027098;28;20106;-82
2023/07/04 02:38:45;;;;;;;0.20;0.10;;;;;;;;;;5047529;28;20036;-82
2023/07/04 02:41:11;;;;;;;0.28;0.20;;;;;;;;;;5032946;28;20044;-81
2023/07/04 02:43:37;;;;;;;0.20;0.10;;;;;;;;;;5024428;28;21554;-81
2023/07/04 02:46:05;;;;;;;0.20;0.10;;;;;;;;;;5021111;28;20228;-81
2023/07/04 02:48:34;;;;;;;0.20;0.20;;;;;;;;;;5049172;28;20051;-83
2023/07/04 02:51:00;;;;;;;0.20;0.10;;;;;;;;;;5049032;28;20037;-81
2023/07/04 02:53:26;;;;;;;0.20;0.10;;;;;;;;;;5037274;28;20051;-82
2023/07/04 02:55:53;;;;;;;0.20;0.08;;;;;;;;;;5028339;28;20040;-81
2023/07/04 02:58:20;;;;;;;0.20;0.10;;;;;;;;;;5050047;28;20060;-82
2023/07/04 03:00:48;;;;;;;0.20;0.10;;;;;;;;;;5049495;28;20103;-82
2023/07/04 03:03:14;;;;;;;0.20;0.00;;;;;;;;;;5030509;28;20044;-81
2023/07/04 03:05:40;;;;;;;0.28;0.20;;;;;;;;;;5030589;28;20878;-81
2023/07/04 03:08:06;;;;;;;0.20;0.10;;;;;;;;;;5044149;28;20670;-81
2023/07/04 03:10:33;;;;;;;0.20;0.20;;;;;;;;;;5037438;28;20574;-82
2023/07/04 03:12:59;;;;;;;0.20;0.10;;;;;;;;;;5036461;28;20036;-82
2023/07/04 03:15:25;;;;;;;0.20;0.10;;;;;;;;;;5030941;28;20193;-82
2023/07/04 03:17:52;;;;;;;0.20;0.10;;;;;;;;;;5049080;28;20496;-81
2023/07/04 03:20:18;;;;;;;0.20;0.10;;;;;;;;;;5048947;28;20119;-82
2023/07/04 03:22:44;;;;;;;0.20;0.03;;;;;;;;;;5040311;28;20033;-81
2023/07/04 03:25:11;;;;;;;0.20;0.10;;;;;;;;;;5047631;28;20089;-82
2023/07/04 03:27:38;;;;;;;0.20;0.00;;;;;;;;;;5050171;28;20394;-82
2023/07/04 03:30:05;;;;;;;0.20;0.10;;;;;;;;;;5029464;28;20477;-81
2023/07/04 03:32:31;;;;;;;0.20;0.10;;;;;;;;;;5007570;28;20043;-82
2023/07/04 03:35:01;;;;;;;0.20;0.10;;;;;;;;;;5022511;28;20041;-81
2023/07/04 03:37:27;;;;;;;0.20;0.08;;;;;;;;;;5018009;28;20752;-83
2023/07/04 03:39:53;;;;;;;0.20;0.10;;;;;;;;;;5020094;28;20037;-80
2023/07/04 03:42:19;;;;;;;0.20;0.10;;;;;;;;;;5034760;28;20041;-82
2023/07/04 03:44:45;;;;;;;0.20;0.10;;;;;;;;;;5036718;28;20075;-82
2023/07/04 03:47:11;;;;;;;1.73;0.35;;;;;;;;;;5015503;28;20049;-82
2023/07/04 03:49:37;;;;;;;0.20;0.00;;;;;;;;;;5034594;22;20064;-84
2023/07/04 03:52:04;;;;;;;0.20;0.10;;;;;;;;;;5018834;28;20044;-82
2023/07/04 03:54:30;;;;;;;0.20;0.10;;;;;;;;;;4997780;28;20482;-82
2023/07/04 03:56:56;;;;;;;0.20;0.00;;;;;;;;;;5022484;28;20556;-84
2023/07/04 03:59:22;;;;;;;0.20;0.10;;;;;;;;;;4993837;28;20065;-82
2023/07/04 04:01:48;;;;;;;1.15;0.77;;;;;;;;;;5022372;28;20137;-82
2023/07/04 04:04:14;;;;;;;0.95;0.93;;;;;;;;;;5011126;28;20044;-84
2023/07/04 04:06:43;;;;;;;0.20;0.00;;;;;;;;;;5012864;28;20515;-82
2023/07/04 04:09:10;;;;;;;0.20;0.00;;;;;;;;;;5028427;28;20040;-82
2023/07/04 04:11:55;;;;;;;0.20;0.10;;;;;;;;;;5030632;28;20059;-83
2023/07/04 04:14:39;;;;;;;0.20;0.10;;;;;;;;;;5028277;28;20121;-81
2023/07/04 04:17:06;;;;;;;0.20;0.20;;;;;;;;;;5006917;28;20045;-82
2023/07/04 04:19:32;;;;;;;0.20;0.10;;;;;;;;;;5002339;28;20728;-83
2023/07/04 04:21:58;;;;;;;3.67;0.43;;;;;;;;;;5022220;28;20041;-81
2023/07/04 04:24:24;;;;;;;0.20;0.10;;;;;;;;;;5013664;28;20044;-82
2023/07/04 04:26:53;;;;;;;0.30;0.30;;;;;;;;;;5024774;28;20048;-82
2023/07/04 04:29:20;;;;;;;0.20;0.10;;;;;;;;;;5036186;28;20048;-83
2023/07/04 04:31:46;;;;;;;0.20;0.10;;;;;;;;;;5013438;28;20025;-83
2023/07/04 04:34:12;;;;;;;0.20;0.05;;;;;;;;;;5021070;28;20048;-83
2023/07/04 04:36:38;;;;;;;0.25;0.13;;;;;;;;;;5012127;28;20049;-83
2023/07/04 04:39:05;;;;;;;0.20;0.10;;;;;;;;;;5029882;28;20041;-83
2023/07/04 04:41:31;;;;;;;0.20;0.03;;;;;;;;;;5013080;28;20069;-82
2023/07/04 04:43:58;;;;;;;0.20;0.20;;;;;;;;;;5021389;28;20040;-84
2023/07/04 04:46:24;;;;;;;0.20;0.00;;;;;;;;;;5021902;28;20127;-84
2023/07/04 04:48:53;;;;;;;0.20;0.10;;;;;;;;;;5022396;28;20053;-85
2023/07/04 04:51:22;;;;;;;0.20;0.10;;;;;;;;;;5024175;28;20126;-83
2023/07/04 04:53:48;;;;;;;0.43;0.22;;;;;;;;;;5009184;28;20053;-86
2023/07/04 04:56:14;;;;;;;0.20;0.10;;;;;;;;;;5030771;28;20129;-82
2023/07/04 04:58:43;;;;;;;0.20;0.10;;;;;;;;;;5017339;28;20045;-83
2023/07/04 05:01:14;;;;;;;0.32;0.32;;;;;;;;;;5019799;28;20124;-84
2023/07/04 05:03:41;;;;;;;0.93;0.77;;;;;;;;;;5027493;28;20036;-82
2023/07/04 05:06:07;;;;;;;0.20;0.10;;;;;;;;;;5014076;28;20040;-83
2023/07/04 05:08:34;;;;;;;0.20;0.10;;;;;;;;;;5033661;28;20068;-83
2023/07/04 05:11:04;;;;;;;0.20;0.10;;;;;;;;;;5024383;28;20045;-85
2023/07/04 05:13:30;;;;;;;0.20;0.10;;;;;;;;;;5029967;28;20044;-81
2023/07/04 05:15:58;;;;;;;0.20;0.00;;;;;;;;;;5028923;28;20056;-84
2023/07/04 05:18:24;;;;;;;0.20;0.10;;;;;;;;;;5029262;28;20082;-83
2023/07/04 05:20:59;;;;;;;0.20;0.10;;;;;;;;;;5020633;28;20490;-81
2023/07/04 05:23:25;;;;;;;0.20;0.00;;;;;;;;;;5032801;28;20051;-82
2023/07/04 05:26:03;;;;;;;0.20;0.10;;;;;;;;;;5011819;28;20971;-82
2023/07/04 05:28:30;;;;;;;0.20;0.10;;;;;;;;;;5025023;28;21894;-82
2023/07/04 05:31:03;;;;;;;0.20;0.10;;;;;;;;;;5009040;28;20053;-81
2023/07/04 05:33:29;;;;;;;0.20;0.10;;;;;;;;;;5032530;28;20056;-82
2023/07/04 05:36:07;;;;;;;0.28;0.15;;;;;;;;;;5034549;28;20045;-83
2023/07/04 05:38:34;;;;;;;0.20;0.10;;;;;;;;;;5039741;28;20033;-83
2023/07/04 05:41:00;;;;;;;0.20;0.08;;;;;;;;;;5021734;28;20033;-83
2023/07/04 05:43:27;;;;;;;0.20;0.10;;;;;;;;;;5019381;28;20118;-84
2023/07/04 05:45:53;;;;;;;0.20;0.10;;;;;;;;;;5037102;28;20127;-83
2023/07/04 05:48:19;;;;;;;0.73;0.38;;;;;;;;;;5021197;28;20037;-82
2023/07/04 05:50:53;;;;;;;0.20;0.10;;;;;;;;;;5036561;28;20517;-84
2023/07/04 05:53:21;;;;;;;0.20;0.10;;;;;;;;;;5032613;28;20048;-83
2023/07/04 05:55:47;;;;;;;0.20;0.10;;;;;;;;;;5023442;28;20536;-80
2023/07/04 05:58:13;;;;;;;0.20;0.10;;;;;;;;;;5022278;28;20041;-82
2023/07/04 06:00:42;;;;;;;0.20;0.10;;;;;;;;;;5021542;28;20045;-83
2023/07/04 06:03:08;;;;;;;0.20;0.10;;;;;;;;;;5020411;28;20127;-81
2023/07/04 06:05:41;;;;;;;0.20;0.10;;;;;;;;;;5019153;28;20512;-81
2023/07/04 06:08:07;;;;;;;0.20;0.10;;;;;;;;;;5029580;28;20599;-83
2023/07/04 06:10:34;;;;;;;0.20;0.10;;;;;;;;;;5020982;28;20048;-82
2023/07/04 06:13:00;;;;;;;0.20;0.10;;;;;;;;;;5016079;28;20048;-82
2023/07/04 06:15:26;;;;;;;0.20;0.10;;;;;;;;;;5031653;28;20037;-81
2023/07/04 06:17:52;;;;;;;0.20;0.10;;;;;;;;;;5034395;28;20045;-81
2023/07/04 06:20:19;;;;;;;0.20;0.20;;;;;;;;;;5022514;28;20044;-82
2023/07/04 06:22:45;;;;;;;0.20;0.10;;;;;;;;;;5031246;28;20041;-80
2023/07/04 06:25:11;;;;;;;0.30;0.10;;;;;;;;;;5040459;28;20041;-81
2023/07/04 06:27:37;;;;;;;0.20;0.10;;;;;;;;;;5032844;28;21484;-81
2023/07/04 06:30:04;;;;;;;0.20;0.10;;;;;;;;;;5028976;28;20045;-82
2023/07/04 06:32:30;;;;;;;0.20;0.00;;;;;;;;;;5007324;28;20113;-81
2023/07/04 06:35:01;;;;;;;0.20;0.08;;;;;;;;;;5027626;28;20108;-82
2023/07/04 06:37:27;;;;;;;0.20;0.10;;;;;;;;;;5030728;28;20049;-82
2023/07/04 06:39:53;;;;;;;0.20;0.00;;;;;;;;;;5029537;28;20368;-85
2023/07/04 06:42:20;;;;;;;0.20;0.08;;;;;;;;;;5031122;28;20033;-82
2023/07/04 06:44:46;;;;;;;0.20;0.10;;;;;;;;;;5029835;28;20063;-83
2023/07/04 06:47:12;;;;;;;0.20;0.10;;;;;;;;;;5028318;28;20065;-80
2023/07/04 06:49:38;;;;;;;0.20;0.10;;;;;;;;;;5026170;28;20041;-83
2023/07/04 06:52:04;;;;;;;0.20;0.10;;;;;;;;;;5015510;28;20123;-80
2023/07/04 06:54:30;;;;;;;3.53;1.10;;;;;;;;;;5031158;28;20495;-83
2023/07/04 06:56:56;;;;;;;0.20;0.10;;;;;;;;;;5028539;28;20131;-82
2023/07/04 06:59:22;;;;;;;0.20;0.10;;;;;;;;;;5031180;28;20043;-83
2023/07/04 07:01:48;;;;;;;0.45;0.10;;;;;;;;;;5013384;28;20060;-84
2023/07/04 07:04:16;;;;;;;0.20;0.10;;;;;;;;;;5014244;28;20036;-83
2023/07/04 07:06:42;;;;;;;0.20;0.10;;;;;;;;;;5033360;28;20159;-83
2023/07/04 07:09:10;;;;;;;0.20;0.10;;;;;;;;;;5024190;28;20312;-83
2023/07/04 07:11:36;;;;;;;0.20;0.00;;;;;;;;;;5015460;28;20426;-82
2023/07/04 07:14:02;;;;;;;0.20;0.10;;;;;;;;;;5031878;28;20095;-83
2023/07/04 07:16:28;;;;;;;0.20;0.03;;;;;;;;;;5009729;28;20457;-85
2023/07/04 07:18:55;;;;;;;0.20;0.10;;;;;;;;;;5032272;28;20028;-81
2023/07/04 07:21:23;;;;;;;0.20;0.10;;;;;;;;;;5031632;28;20042;-81
2023/07/04 07:23:50;;;;;;;0.20;0.10;;;;;;;;;;5035470;28;20041;-82
2023/07/04 07:26:19;;;;;;;0.20;0.00;;;;;;;;;;5018303;28;20041;-82
2023/07/04 07:28:45;;;;;;;0.20;0.10;;;;;;;;;;5040524;22;21806;-80
2023/07/04 07:31:12;;;;;;;0.20;0.10;;;;;;;;;;5019519;28;20541;-80
2023/07/04 07:33:39;;;;;;;0.20;0.10;;;;;;;;;;5025261;28;20033;-80
2023/07/04 07:36:15;;;;;;;0.20;0.00;;;;;;;;;;5004472;28;20052;-79
2023/07/04 07:38:41;;;;;;;0.20;0.10;;;;;;;;;;5016568;28;20050;-78
2023/07/04 07:41:07;;;;;;;0.20;0.00;;;;;;;;;;4998051;28;20513;-80
2023/07/04 07:43:34;;;;;;;0.20;0.10;;;;;;;;;;5012285;28;20034;-79
2023/07/04 07:46:00;;;;;;;0.20;0.10;;;;;;;;;;5010130;28;20216;-80
2023/07/04 07:48:27;;;;;;;0.20;0.08;;;;;;;;;;4979965;28;20391;-80
2023/07/04 07:50:53;;;;;;;0.20;0.05;;;;;;;;;;4994429;28;20391;-80
2023/07/04 07:53:19;;;;;;;0.20;0.10;;;;;;;;;;4998431;28;20506;-79
2023/07/04 07:55:45;;;;;;;0.20;0.10;;;;;;;;;;4995855;28;20041;-78
2023/07/04 07:58:11;;;;;;;0.20;0.10;;;;;;;;;;4980557;28;20341;-80
2023/07/04 08:00:37;;;;;;;0.20;0.10;;;;;;;;;;4990166;28;20586;-78
2023/07/04 08:03:03;;;;;;;0.20;0.03;;;;;;;;;;4993285;28;20034;-81
2023/07/04 08:05:29;;;;;;;0.20;0.08;;;;;;;;;;4993566;28;20086;-78
2023/07/04 08:07:55;;;;;;;0.20;0.13;;;;;;;;;;4988488;28;20041;-78
2023/07/04 08:10:21;;;;;;;0.20;0.05;;;;;;;;;;4978270;28;20049;-84
2023/07/04 08:12:47;;;;;;;0.20;0.10;;;;;;;;;;4991307;28;20036;-83
2023/07/04 08:15:13;;;;;;;0.22;0.15;;;;;;;;;;5014412;28;20046;-83
2023/07/04 08:17:39;;;;;;;0.20;0.10;;;;;;;;;;5006558;28;21386;-81
2023/07/04 08:20:06;;;;;;;0.20;0.20;;;;;;;;;;5009863;28;20050;-84
2023/07/04 08:22:32;;;;;;;0.20;0.10;;;;;;;;;;4990078;28;20044;-82
2023/07/04 08:24:59;;;;;;;0.20;0.20;;;;;;;;;;4992198;28;20485;-82
2023/07/04 08:27:26;;;;;;;0.20;0.10;;;;;;;;;;5010637;28;20591;-83
2023/07/04 08:29:52;;;;;;;0.20;0.10;;;;;;;;;;4984466;28;20046;-81
2023/07/04 08:32:18;;;;;;;0.20;0.10;;;;;;;;;;4984761;28;20048;-80
2023/07/04 08:34:47;;;;;;;0.20;0.10;;;;;;;;;;4992056;28;20426;-83
2023/07/04 08:37:14;;;;;;;0.20;0.00;;;;;;;;;;4994469;28;20459;-82
2023/07/04 08:39:45;;;;;;;0.20;0.10;;;;;;;;;;4986329;28;20041;-81
2023/07/04 08:42:13;;;;;;;0.20;0.05;;;;;;;;;;4997016;28;20466;-82
2023/07/04 08:44:46;;;;;;;1.23;0.80;;;;;;;;;;4998727;28;20049;-80
2023/07/04 08:47:14;;;;;;;0.20;0.08;;;;;;;;;;5007162;28;20080;-81
2023/07/04 08:49:42;;;;;;;0.20;0.13;;;;;;;;;;4991927;28;20129;-81
2023/07/04 08:52:08;;;;;;;0.20;0.00;;;;;;;;;;4996148;28;20041;-81
2023/07/04 08:54:35;;;;;;;0.20;0.00;;;;;;;;;;4986298;28;20041;-81
2023/07/04 08:57:05;;;;;;;0.20;0.10;;;;;;;;;;4984334;28;20038;-82
2023/07/04 08:59:40;;;;;;;0.20;0.05;;;;;;;;;;4996476;28;20047;-82
2023/07/04 09:02:26;;;;;;;0.20;0.10;;;;;;;;;;5001570;28;20861;-83
2023/07/04 09:05:13;;;;;;;0.20;0.00;;;;;;;;;;4982821;28;20060;-83
2023/07/04 09:07:42;;;;;;;0.20;0.05;;;;;;;;;;4997124;28;20124;-82
2023/07/04 09:10:11;;;;;;;0.20;0.10;;;;;;;;;;4999971;28;20102;-82
2023/07/04 09:12:38;;;;;;;0.20;0.10;;;;;;;;;;4999798;28;20068;-83
2023/07/04 09:15:13;;;;;;;0.20;0.10;;;;;;;;;;5016636;28;20049;-84
2023/07/04 09:17:41;;;;;;;0.20;0.10;;;;;;;;;;4994961;28;20038;-81
2023/07/04 09:20:08;;;;;;;0.40;0.20;;;;;;;;;;5010828;28;20041;-81
2023/07/04 09:22:35;;;;;;;0.20;0.10;;;;;;;;;;4979123;28;20056;-82
2023/07/04 09:25:03;;;;;;;0.40;0.40;;;;;;;;;;4999429;28;20033;-81
2023/07/04 09:27:29;;;;;;;0.20;0.10;;;;;;;;;;4996963;28;20128;-81
2023/07/04 09:29:56;;;;;;;0.32;0.17;;;;;;;;;;4991797;28;20056;-80
2023/07/04 09:32:22;;;;;;;0.20;0.10;;;;;;;;;;4995943;28;20034;-80
2023/07/04 09:34:53;;;;;;;0.20;0.10;;;;;;;;;;5011476;28;20052;-81
2023/07/04 09:37:20;;;;;;;0.20;0.10;;;;;;;;;;4990708;28;20087;-81
2023/07/04 09:39:47;;;;;;;0.65;0.32;;;;;;;;;;4997494;28;20045;-81
2023/07/04 09:42:14;;;;;;;0.20;0.10;;;;;;;;;;5009813;28;20545;-79
2023/07/04 09:44:41;;;;;;;0.50;0.50;;;;;;;;;;4982621;28;20695;-80
2023/07/04 09:47:14;;;;;;;0.20;0.10;;;;;;;;;;4994976;28;20521;-81
2023/07/04 09:49:40;;;;;;;4.40;1.63;;;;;;;;;;4998160;28;20093;-81
2023/07/04 09:52:19;;;;;;;0.20;0.20;;;;;;;;;;4991959;28;20056;-80
2023/07/04 09:54:45;;;;;;;0.20;0.10;;;;;;;;;;4997034;28;20037;-84
2023/07/04 09:57:16;;;;;;;0.20;0.08;;;;;;;;;;4994421;28;20268;-80
2023/07/04 09:59:42;;;;;;;0.20;0.10;;;;;;;;;;4994712;28;20048;-80
2023/07/04 10:02:14;;;;;;;0.20;0.20;;;;;;;;;;5004705;28;20272;-83
2023/07/04 10:04:40;;;;;;;0.30;0.10;;;;;;;;;;4997192;28;20064;-81
2023/07/04 10:07:18;;;;;;;0.20;0.10;;;;;;;;;;5010762;28;20122;-80
2023/07/04 10:10:07;;;;;;;0.20;0.10;;;;;;;;;;5015861;28;20301;-79
2023/07/04 10:12:40;;;;;;;0.20;0.10;;;;;;;;;;4997814;28;20052;-81
2023/07/04 10:15:06;;;;;;;0.20;0.00;;;;;;;;;;4984989;28;20071;-80
2023/07/04 10:17:33;;;;;;;0.52;0.52;;;;;;;;;;4975762;28;20041;-84
2023/07/04 10:20:05;;;;;;;0.22;0.10;;;;;;;;;;5008367;28;20434;-82
2023/07/04 10:22:31;;;;;;;;;;;;;;;;;;4996523;28;20042;-79
2023/07/04 10:24:58;;;;;;;0.20;0.10;;;;;;;;;;4991747;28;20428;-81
2023/07/04 10:27:44;;;;;;;0.40;0.10;;;;;;;;;;4994839;28;20065;-80
2023/07/04 10:30:19;;;;;;;0.20;0.10;;;;;;;;;;4980159;28;20064;-79
2023/07/04 10:32:54;;;;;;;0.20;0.10;;;;;;;;;;4998203;28;20050;-79
2023/07/04 10:35:22;;;;;;;0.20;0.10;;;;;;;;;;4989560;28;20042;-81
2023/07/04 10:37:53;;;;;;;0.30;0.20;;;;;;;;;;4981770;28;20145;-79
2023/07/04 10:40:20;;;;;;;0.30;0.20;;;;;;;;;;5011776;28;20128;-80
2023/07/04 10:42:50;;;;;;;0.20;0.08;;;;;;;;;;4979364;28;20037;-79
2023/07/04 10:45:18;;;;;;;0.20;0.10;;;;;;;;;;4993266;28;20041;-80
2023/07/04 10:47:44;;;;;;;0.20;0.10;;;;;;;;;;4996061;28;20048;-81
2023/07/04 10:50:22;;;;;;;0.20;0.20;;;;;;;;;;5011866;28;20126;-80
2023/07/04 10:52:48;;;;;;;0.20;0.10;;;;;;;;;;5002501;28;20057;-80
2023/07/04 10:55:16;;;;;;;0.20;0.00;;;;;;;;;;5008939;28;20491;-81
2023/07/04 10:57:45;;;;;;;0.20;0.10;;;;;;;;;;4987522;28;20049;-79
2023/07/04 11:00:14;;;;;;;0.20;0.10;;;;;;;;;;5009169;28;20046;-80
2023/07/04 11:02:43;;;;;;;0.20;0.00;;;;;;;;;;4994408;28;20075;-84
2023/07/04 11:05:13;;;;;;;0.20;0.10;;;;;;;;;;4985260;28;20041;-82
2023/07/04 11:07:41;;;;;;;0.20;0.03;;;;;;;;;;4992082;28;20057;-81
2023/07/04 11:10:09;;;;;;;0.20;0.10;;;;;;;;;;4982056;28;20100;-81
2023/07/04 11:12:37;;;;;;;0.20;0.10;;;;;;;;;;5015343;28;20033;-81
2023/07/04 11:15:16;;;;;;;0.20;0.10;;;;;;;;;;5024353;28;20045;-81
2023/07/04 11:17:43;;;;;;;0.20;0.10;;;;;;;;;;4998497;28;20030;-79
2023/07/04 11:20:16;;;;;;;0.20;0.05;;;;;;;;;;4985234;28;20417;-80
2023/07/04 11:22:53;;;;;;;0.40;0.25;;;;;;;;;;5014361;28;20498;-82
2023/07/04 11:25:31;;;;;;;0.20;0.10;;;;;;;;;;5014353;28;20033;-81
2023/07/04 11:28:16;;;;;;;0.20;0.10;;;;;;;;;;4987207;28;20628;-81
2023/07/04 11:30:45;;;;;;;0.20;0.10;;;;;;;;;;4998824;28;20143;-80
2023/07/04 11:33:31;;;;;;;0.20;0.10;;;;;;;;;;5007011;28;20046;-81
2023/07/04 11:35:57;;;;;;;0.20;0.10;;;;;;;;;;4999068;28;20525;-79
2023/07/04 11:38:23;;;;;;;0.20;0.10;;;;;;;;;;4998561;28;20152;-78
2023/07/04 11:40:55;;;;;;;0.20;0.10;;;;;;;;;;5016419;28;20041;-81
2023/07/04 11:43:24;;;;;;;0.20;0.10;;;;;;;;;;5001263;28;20119;-80
2023/07/04 11:45:51;;;;;;;0.22;0.20;;;;;;;;;;4998091;28;20053;-82
2023/07/04 11:48:18;;;;;;;0.40;0.20;;;;;;;;;;4991356;28;20045;-82
2023/07/04 11:50:46;;;;;;;0.20;0.10;;;;;;;;;;4986592;28;20072;-84
2023/07/04 11:53:18;;;;;;;0.20;0.05;;;;;;;;;;4997786;28;20124;-81
2023/07/04 11:55:44;;;;;;;;;;;;;;;;;;4996940;28;20046;-80
2023/07/04 11:58:10;;;;;;;0.20;0.10;;;;;;;;;;5002509;28;20038;-76
2023/07/04 12:00:37;;;;;;;0.20;0.10;;;;;;;;;;4999288;28;20686;-80
2023/07/04 12:03:19;;;;;;;0.20;0.10;;;;;;;;;;4997694;28;20733;-83
2023/07/04 12:05:51;;;;;;;0.40;0.38;;;;;;;;;;4995454;28;20054;-81
2023/07/04 12:08:19;;;;;;;0.20;0.10;;;;;;;;;;4992777;28;20106;-81
2023/07/04 12:10:46;;;;;;;0.20;0.10;;;;;;;;;;4981129;28;21479;-82
2023/07/04 12:13:16;;;;;;;0.20;0.10;;;;;;;;;;4999897;28;20048;-81
2023/07/04 12:15:43;;;;;;;0.73;0.30;;;;;;;;;;5004239;28;20095;-80
2023/07/04 12:18:19;;;;;;;0.30;0.30;;;;;;;;;;4987143;28;20120;-80
2023/07/04 12:20:46;;;;;;;0.20;0.10;;;;;;;;;;5011059;28;20429;-82
2023/07/04 12:23:12;;;;;;;0.20;0.10;;;;;;;;;;4997882;28;20082;-85
2023/07/04 12:25:41;;;;;;;0.20;0.10;;;;;;;;;;4996625;28;20498;-81
2023/07/04 12:28:09;;;;;;;0.20;0.10;;;;;;;;;;4996903;28;20064;-81
2023/07/04 12:30:38;;;;;;;0.20;0.10;;;;;;;;;;4999035;28;20034;-85
2023/07/04 12:33:04;;;;;;;0.47;0.20;;;;;;;;;;5012897;28;20057;-81
2023/07/04 12:35:31;;;;;;;0.20;0.10;;;;;;;;;;4981450;28;20042;-79
2023/07/04 12:37:58;;;;;;;0.20;0.10;;;;;;;;;;4994849;28;20969;-80
2023/07/04 12:40:28;;;;;;;0.20;0.10;;;;;;;;;;4988637;28;20041;-80
2023/07/04 12:42:55;;;;;;;0.20;0.10;;;;;;;;;;4996278;28;20049;-83
2023/07/04 12:45:26;;;;;;;0.20;0.10;;;;;;;;;;4997092;28;20034;-80
2023/07/04 12:47:54;;;;;;;0.20;0.10;;;;;;;;;;4993940;28;20124;-83
2023/07/04 12:50:21;;;;;;;0.20;0.10;;;;;;;;;;4993162;28;20041;-83
2023/07/04 12:52:48;;;;;;;4.15;1.50;;;;;;;;;;4981936;28;20537;-80
2023/07/04 12:55:20;;;;;;;0.75;0.20;;;;;;;;;;4992768;28;20038;-80
2023/07/04 12:57:46;;;;;;;0.20;0.08;;;;;;;;;;4999616;28;20042;-81
2023/07/04 13:00:14;;;;;;;0.20;0.15;;;;;;;;;;4995389;28;20041;-82
2023/07/04 13:02:40;;;;;;;0.20;0.10;;;;;;;;;;5001175;28;20037;-82
2023/07/04 13:05:09;;;;;;;0.20;0.10;;;;;;;;;;4996590;28;20038;-81
2023/07/04 13:07:35;;;;;;;0.20;0.10;;;;;;;;;;4979568;28;20037;-86
2023/07/04 13:10:03;;;;;;;0.20;0.10;;;;;;;;;;4989773;28;20076;-82
2023/07/04 13:12:30;;;;;;;0.35;0.35;;;;;;;;;;5013349;28;20091;-82
2023/07/04 13:15:07;;;;;;;0.20;0.10;;;;;;;;;;4983037;28;20289;-81
2023/07/04 13:17:33;;;;;;;0.20;0.08;;;;;;;;;;4988155;28;20258;-82
2023/07/04 13:20:09;;;;;;;0.20;0.03;;;;;;;;;;4994726;28;20042;-80
2023/07/04 13:22:35;;;;;;;0.57;0.57;;;;;;;;;;5012866;28;20542;-85
2023/07/04 13:25:21;;;;;;;0.20;0.10;;;;;;;;;;4996824;28;20629;-80
2023/07/04 13:27:48;;;;;;;0.40;0.40;;;;;;;;;;4980517;28;20400;-79
2023/07/04 13:30:27;;;;;;;0.55;0.40;;;;;;;;;;5063696;23;20048;-82
2023/07/04 13:32:53;;;;;;;0.20;0.10;;;;;;;;;;5046979;28;20033;-83
2023/07/04 13:35:20;;;;;;;0.20;0.10;;;;;;;;;;5053936;28;20040;-83
2023/07/04 13:37:46;;;;;;;0.20;0.13;;;;;;;;;;5053146;28;20094;-83
2023/07/04 13:40:13;;;;;;;0.20;0.10;;;;;;;;;;5035774;28;20180;-81
2023/07/04 13:42:41;;;;;;;0.20;0.10;;;;;;;;;;5031890;28;20041;-84
2023/07/04 13:45:12;;;;;;;0.20;0.10;;;;;;;;;;5054033;28;20075;-83
2023/07/04 13:47:41;;;;;;;0.20;0.10;;;;;;;;;;5039987;28;20044;-86
2023/07/04 13:50:14;;;;;;;0.20;0.10;;;;;;;;;;5030372;28;20052;-86
2023/07/04 13:52:40;;;;;;;1.00;0.20;;;;;;;;;;5040729;28;20501;-84
2023/07/04 13:55:10;;;;;;;1.05;0.32;;;;;;;;;;5026079;28;20158;-83
2023/07/04 13:57:36;;;;;;;0.20;0.10;;;;;;;;;;5038276;28;20064;-81
2023/07/04 14:00:03;;;;;;;0.20;0.13;;;;;;;;;;5039616;28;20139;-82
2023/07/04 14:02:29;;;;;;;0.20;0.10;;;;;;;;;;5055998;28;20169;-85
2023/07/04 14:04:55;;;;;;;0.20;0.10;;;;;;;;;;5049106;28;20216;-83
2023/07/04 14:07:24;;;;;;;0.20;0.10;;;;;;;;;;5035923;28;20041;-81
2023/07/04 14:09:50;;;;;;;0.75;0.52;;;;;;;;;;5053660;28;20040;-81
2023/07/04 14:12:16;;;;;;;0.20;0.20;;;;;;;;;;5034331;28;20040;-82
2023/07/04 14:14:43;;;;;;;0.20;0.10;;;;;;;;;;5027683;28;20097;-83
2023/07/04 14:17:09;;;;;;;0.20;0.10;;;;;;;;;;5055818;28;20041;-86
2023/07/04 14:19:35;;;;;;;0.25;0.20;;;;;;;;;;5041332;28;20036;-84
2023/07/04 14:22:04;;;;;;;0.20;0.10;;;;;;;;;;5054502;28;20576;-87
2023/07/04 14:24:30;;;;;;;0.20;0.10;;;;;;;;;;5056969;28;20394;-81
2023/07/04 14:26:56;;;;;;;0.20;0.10;;;;;;;;;;5054524;28;20083;-83
2023/07/04 14:29:22;;;;;;;0.20;0.10;;;;;;;;;;5057480;28;20322;-83
2023/07/04 14:31:49;;;;;;;0.20;0.10;;;;;;;;;;5038094;28;20041;-85
2023/07/04 14:34:20;;;;;;;0.20;0.10;;;;;;;;;;5036200;28;20095;-86
2023/07/04 14:36:49;;;;;;;0.20;0.10;;;;;;;;;;5031808;28;20504;-81
2023/07/04 14:39:15;;;;;;;1.55;1.13;;;;;;;;;;5039909;28;20571;-83
2023/07/04 14:41:41;;;;;;;0.20;0.10;;;;;;;;;;5037701;28;20037;-86
2023/07/04 14:44:08;;;;;;;0.20;0.10;;;;;;;;;;5056818;28;20284;-81
2023/07/04 14:46:40;;;;;;;0.20;0.10;;;;;;;;;;5059198;28;20045;-83
2023/07/04 14:49:09;;;;;;;;;;;;;;;;;;5039957;28;20048;-83